Time;durP1;ratioP1;P1;durP2;ratioP2;P2;SDS_P1;SDS_P2;PMS_P1;PMS_P2;Temp;Humidity;BMP_temperature;BMP_pressure;BME280_temperature;BME280_humidity;BME280_pressure;Samples;Min_cycle;Max_cycle;Signal;HPM_P1;HPM_P2
2023/02/28 00:00:28;;;;;;;8.83;4.80;;;;;;;-0.95;53.86;99856.09;5063064;28;20035;-68
2023/02/28 00:02:54;;;;;;;9.07;4.80;;;;;;;-0.94;53.20;99842.13;5063523;28;20042;-66
2023/02/28 00:05:22;;;;;;;8.90;4.90;;;;;;;-0.81;53.76;99839.72;5080299;28;20138;-66
2023/02/28 00:07:48;;;;;;;11.43;5.53;;;;;;;-0.98;54.03;99829.34;5063413;28;20036;-67
2023/02/28 00:10:22;;;;;;;8.70;4.53;;;;;;;-0.77;54.12;99836.03;5080194;28;20046;-66
2023/02/28 00:12:53;;;;;;;8.73;5.20;;;;;;;-1.38;55.20;99822.78;5097200;28;20051;-66
2023/02/28 00:15:19;;;;;;;8.05;4.53;;;;;;;-1.77;56.09;99833.47;5080027;28;20047;-66
2023/02/28 00:17:46;;;;;;;8.93;4.80;;;;;;;-1.58;55.81;99817.75;5063313;28;20470;-67
2023/02/28 00:20:13;;;;;;;8.23;5.40;;;;;;;-1.47;56.11;99814.59;5062837;28;20058;-67
2023/02/28 00:22:43;;;;;;;9.37;5.00;;;;;;;-1.21;56.11;99820.16;5062965;28;20047;-66
2023/02/28 00:25:11;;;;;;;9.60;4.97;;;;;;;-1.79;56.67;99801.47;5096416;28;20047;-66
2023/02/28 00:27:39;;;;;;;6.83;4.30;;;;;;;-2.01;57.67;99807.81;5096214;28;20273;-66
2023/02/28 00:30:07;;;;;;;7.47;4.63;;;;;;;-1.81;57.55;99803.31;5046211;28;20071;-66
2023/02/28 00:32:34;;;;;;;8.30;5.20;;;;;;;-1.93;56.91;99801.34;5062866;28;20063;-66
2023/02/28 00:35:01;;;;;;;10.53;5.20;;;;;;;-1.72;56.21;99817.63;5062656;28;20055;-66
2023/02/28 00:37:31;;;;;;;6.27;4.60;;;;;;;-1.86;56.36;99804.47;5079768;28;20043;-66
2023/02/28 00:39:57;;;;;;;7.93;4.23;;;;;;;-1.89;56.04;99788.97;5062423;28;20043;-66
2023/02/28 00:42:23;;;;;;;8.27;4.83;;;;;;;-1.77;56.24;99794.41;5045833;28;20142;-66
2023/02/28 00:44:50;;;;;;;9.30;5.47;;;;;;;-2.12;56.87;99799.69;5078714;28;20043;-66
2023/02/28 00:47:16;;;;;;;10.07;5.43;;;;;;;-1.89;56.55;99786.38;5062790;28;20184;-66
2023/02/28 00:49:43;;;;;;;9.03;4.90;;;;;;;-1.94;56.71;99797.03;5079133;28;20514;-66
2023/02/28 00:52:10;;;;;;;11.10;5.63;;;;;;;-2.02;56.73;99785.31;5062441;28;20042;-66
2023/02/28 00:54:37;;;;;;;7.63;4.97;;;;;;;-2.21;57.10;99793.19;5095793;28;20059;-66
2023/02/28 00:57:03;;;;;;;8.73;4.93;;;;;;;-1.97;56.90;99778.13;5045701;28;20391;-66
2023/02/28 00:59:31;;;;;;;7.33;4.47;;;;;;;-1.87;56.25;99790.63;5079299;28;20078;-66
2023/02/28 01:01:59;;;;;;;9.60;5.57;;;;;;;-2.00;56.22;99775.69;5029794;28;20043;-65
2023/02/28 01:04:25;;;;;;;9.23;5.37;;;;;;;-2.24;55.81;99777.75;5062203;28;20048;-65
2023/02/28 01:06:51;;;;;;;7.47;4.27;;;;;;;-2.10;56.25;99777.06;5078527;28;20038;-65
2023/02/28 01:09:17;;;;;;;9.80;5.20;;;;;;;-1.94;56.36;99764.97;5062258;28;20046;-66
2023/02/28 01:11:43;;;;;;;8.83;5.00;;;;;;;-2.10;56.10;99764.03;5062044;28;20048;-66
2023/02/28 01:14:15;;;;;;;7.40;4.93;;;;;;;-1.72;56.79;99765.53;5045734;28;20108;-66
2023/02/28 01:16:42;;;;;;;9.23;5.03;;;;;;;-2.23;56.25;99748.19;5045170;28;20429;-66
2023/02/28 01:19:07;;;;;;;9.47;5.33;;;;;;;-2.09;56.72;99755.34;5045332;28;20098;-67
2023/02/28 01:21:34;;;;;;;9.13;5.00;;;;;;;-2.07;56.68;99756.94;5055262;28;20040;-66
2023/02/28 01:24:01;;;;;;;8.20;4.97;;;;;;;-2.07;56.00;99758.69;5041577;28;20047;-66
2023/02/28 01:26:27;;;;;;;7.40;5.03;;;;;;;-2.11;55.85;99750.19;5041735;28;20043;-66
2023/02/28 01:28:53;;;;;;;9.30;5.07;;;;;;;-2.24;55.98;99749.13;5025284;28;20048;-66
2023/02/28 01:31:20;;;;;;;10.03;5.23;;;;;;;-2.13;56.97;99751.19;5025663;28;20142;-66
2023/02/28 01:33:46;;;;;;;9.47;5.20;;;;;;;-2.17;56.84;99742.69;5058776;28;20130;-66
2023/02/28 01:36:19;;;;;;;7.83;4.80;;;;;;;-1.85;56.53;99739.31;5058759;28;20117;-66
2023/02/28 01:38:46;;;;;;;7.63;4.43;;;;;;;-2.26;57.42;99732.75;5041674;28;20040;-67
2023/02/28 01:41:19;;;;;;;10.70;5.37;;;;;;;-2.24;58.15;99719.66;5074172;28;20483;-67
2023/02/28 01:43:45;;;;;;;12.20;4.90;;;;;;;-2.42;57.94;99725.78;5058180;28;20461;-66
2023/02/28 01:46:13;;;;;;;11.07;5.23;;;;;;;-2.05;57.46;99718.69;5074704;28;20072;-66
2023/02/28 01:48:42;;;;;;;11.60;5.77;;;;;;;-2.03;57.68;99724.63;5041336;28;20130;-66
2023/02/28 01:51:14;;;;;;;8.23;5.50;;;;;;;-1.69;57.51;99713.31;5041079;28;20044;-66
2023/02/28 01:53:49;;;;;;;11.03;5.20;;;;;;;-1.61;57.19;99718.97;5057974;28;20047;-66
2023/02/28 01:56:20;;;;;;;7.10;4.70;;;;;;;-1.74;56.87;99710.97;5039020;28;20055;-68
2023/02/28 01:58:49;;;;;;;7.73;4.27;;;;;;;-1.95;56.84;99711.22;5056915;28;20479;-67
2023/02/28 02:01:21;;;;;;;7.70;4.67;;;;;;;-2.30;56.96;99694.81;5039902;28;20044;-65
2023/02/28 02:03:54;;;;;;;11.67;5.37;;;;;;;-2.22;58.01;99697.88;5040879;28;20143;-66
2023/02/28 02:06:27;;;;;;;7.10;5.20;;;;;;;-2.43;59.32;99685.09;5057819;28;20572;-66
2023/02/28 02:08:54;;;;;;;6.27;4.50;;;;;;;-2.72;58.43;99681.31;5057843;28;20544;-67
2023/02/28 02:11:22;;;;;;;7.23;4.77;;;;;;;-2.61;58.75;99678.19;5041317;28;20043;-66
2023/02/28 02:14:00;;;;;;;8.57;5.00;;;;;;;-2.70;58.81;99683.84;5057751;28;20135;-66
2023/02/28 02:16:56;;;;;;;9.07;4.97;;;;;;;-1.67;58.78;99689.81;5058098;28;20055;-66
2023/02/28 02:20:02;;;;;;;9.17;4.90;;;;;;;-1.52;57.97;99689.03;5057968;28;20135;-66
2023/02/28 02:23:07;;;;;;;7.83;4.50;;;;;;;-1.62;57.69;99674.78;5074465;28;20051;-66
2023/02/28 02:25:46;;;;;;;9.77;5.87;;;;;;;-2.23;58.69;99677.97;5057383;28;20050;-66
2023/02/28 02:28:28;;;;;;;8.70;5.43;;;;;;;-2.21;59.16;99657.06;5057759;28;20071;-66
2023/02/28 02:31:14;;;;;;;8.30;5.00;;;;;;;-1.81;58.44;99662.75;5040992;28;20507;-67
2023/02/28 02:34:05;;;;;;;6.03;4.07;;;;;;;-2.04;59.07;99650.09;5074248;28;20044;-66
2023/02/28 02:36:38;;;;;;;8.27;4.83;;;;;;;-1.93;58.25;99650.38;5057583;28;20036;-66
2023/02/28 02:39:34;;;;;;;6.40;4.47;;;;;;;-1.75;58.73;99658.97;5074072;28;20048;-66
2023/02/28 02:42:02;;;;;;;8.10;3.57;;;;;;;-2.18;58.13;99652.56;5057426;28;20055;-65
2023/02/28 02:44:33;;;;;;;9.03;5.03;;;;;;;-1.73;57.82;99647.56;5057312;28;20043;-66
2023/02/28 02:47:12;;;;;;;8.40;4.63;;;;;;;-1.68;57.71;99636.91;5057452;28;20043;-66
2023/02/28 02:49:39;;;;;;;6.53;4.27;;;;;;;-1.94;57.42;99637.47;5040705;28;20043;-67
2023/02/28 02:52:08;;;;;;;6.40;4.23;;;;;;;-2.09;57.86;99641.69;5040735;28;20164;-66
2023/02/28 02:54:40;;;;;;;6.70;4.30;;;;;;;-2.10;58.16;99653.03;5037247;28;20407;-67
2023/02/28 02:57:10;;;;;;;7.03;4.53;;;;;;;-2.31;59.28;99640.28;5053609;28;20044;-67
2023/02/28 02:59:38;;;;;;;5.93;4.23;;;;;;;-2.19;58.79;99635.28;5037367;28;20088;-66
2023/02/28 03:02:07;;;;;;;7.20;4.03;;;;;;;-2.20;59.01;99627.56;5020739;28;20036;-66
2023/02/28 03:04:38;;;;;;;7.77;4.70;;;;;;;-2.16;58.88;99631.69;5037227;28;20056;-67
2023/02/28 03:07:04;;;;;;;6.93;4.73;;;;;;;-2.34;59.05;99615.25;5056182;28;20135;-66
2023/02/28 03:09:33;;;;;;;7.43;4.23;;;;;;;-1.95;58.37;99607.13;5037339;28;20130;-66
2023/02/28 03:12:00;;;;;;;7.77;4.43;;;;;;;-2.15;57.92;99604.72;5077358;28;20044;-66
2023/02/28 03:14:38;;;;;;;6.83;4.33;;;;;;;-1.93;58.27;99605.31;5077639;28;20458;-68
2023/02/28 03:17:26;;;;;;;7.53;4.47;;;;;;;-1.56;58.41;99594.59;5094526;28;20200;-66
2023/02/28 03:20:03;;;;;;;7.60;4.30;;;;;;;-1.72;57.71;99594.59;5077575;28;20536;-66
2023/02/28 03:22:49;;;;;;;4.83;3.57;;;;;;;-1.92;57.29;99602.63;5061285;28;20127;-66
2023/02/28 03:25:30;;;;;;;6.40;3.53;;;;;;;-2.16;58.99;99592.66;5060851;28;20040;-66
2023/02/28 03:28:18;;;;;;;5.43;3.77;;;;;;;-2.18;58.89;99584.09;5056917;28;20101;-66
2023/02/28 03:31:20;;;;;;;5.80;3.90;;;;;;;-2.43;59.14;99571.53;5056636;28;20040;-67
2023/02/28 03:33:58;;;;;;;11.60;5.33;;;;;;;-2.74;61.12;99581.81;5039510;28;20080;-66
2023/02/28 03:36:48;;;;;;;7.00;4.40;;;;;;;-2.43;60.43;99562.91;5055432;28;20052;-66
2023/02/28 03:39:53;;;;;;;7.40;4.83;;;;;;;-2.46;60.76;99561.28;5039422;28;20520;-66
2023/02/28 03:42:22;;;;;;;4.83;3.33;;;;;;;-2.27;59.97;99550.75;5038690;28;20057;-66
2023/02/28 03:44:54;;;;;;;6.10;4.00;;;;;;;-2.21;58.79;99556.47;5053433;28;20056;-67
2023/02/28 03:47:27;;;;;;;6.17;3.80;;;;;;;-2.02;57.98;99533.78;5040042;28;20048;-65
2023/02/28 03:50:07;;;;;;;6.97;4.67;;;;;;;-2.12;57.77;99518.72;5056079;28;20048;-64
2023/02/28 03:52:36;;;;;;;6.72;3.78;;;;;;;-2.27;58.09;99537.75;5075814;28;20105;-65
2023/02/28 03:55:07;;;;;;;6.17;4.03;;;;;;;-2.24;58.50;99527.19;5075496;28;20071;-65
2023/02/28 03:57:36;;;;;;;6.35;3.50;;;;;;;-1.91;57.47;99521.00;5075832;28;20036;-64
2023/02/28 04:00:32;;;;;;;5.57;3.57;;;;;;;-1.96;57.96;99506.59;5075768;28;20403;-65
2023/02/28 04:02:58;;;;;;;8.33;4.13;;;;;;;-2.24;56.77;99516.78;5059863;28;20802;-61
2023/02/28 04:05:24;;;;;;;6.50;4.00;;;;;;;-2.68;57.53;99511.34;5059417;28;20474;-64
2023/02/28 04:07:50;;;;;;;7.80;4.83;;;;;;;-2.63;57.21;99521.50;5059195;28;20067;-63
2023/02/28 04:10:17;;;;;;;6.90;4.17;;;;;;;-2.50;58.02;99504.31;5059667;28;20138;-60
2023/02/28 04:12:44;;;;;;;5.50;3.90;;;;;;;-2.75;57.97;99498.72;5058910;28;20066;-59
2023/02/28 04:15:11;;;;;;;7.63;4.60;;;;;;;-2.78;58.07;99497.13;5059474;28;20161;-60
2023/02/28 04:17:40;;;;;;;9.23;4.30;;;;;;;-2.62;57.59;99491.97;5076585;28;20388;-63
2023/02/28 04:20:09;;;;;;;7.33;4.80;;;;;;;-2.46;56.95;99491.06;5059030;28;20036;-67
2023/02/28 04:22:36;;;;;;;7.40;4.57;;;;;;;-2.59;58.05;99486.59;5058857;28;20044;-67
2023/02/28 04:25:05;;;;;;;8.53;4.50;;;;;;;-2.45;57.70;99471.13;5075745;28;20074;-70
2023/02/28 04:27:31;;;;;;;6.87;4.77;;;;;;;-2.75;58.28;99463.16;5058928;28;20543;-67
2023/02/28 04:29:57;;;;;;;9.33;5.13;;;;;;;-2.95;57.88;99472.94;5042380;28;20040;-67
2023/02/28 04:32:24;;;;;;;6.47;3.77;;;;;;;-2.93;58.00;99481.47;5058224;28;20040;-71
2023/02/28 04:34:49;;;;;;;7.43;4.43;;;;;;;-2.81;57.77;99463.50;5041423;28;20496;-65
2023/02/28 04:37:15;;;;;;;5.73;4.00;;;;;;;-2.65;57.22;99468.72;5091898;28;20043;-64
2023/02/28 04:39:41;;;;;;;8.77;4.10;;;;;;;-2.56;57.44;99456.09;5058590;28;20404;-63
2023/02/28 04:42:08;;;;;;;9.20;5.20;;;;;;;-2.72;57.21;99468.22;5091926;28;20108;-62
2023/02/28 04:44:33;;;;;;;7.37;5.17;;;;;;;-3.04;57.88;99479.41;5075189;28;20497;-61
2023/02/28 04:46:59;;;;;;;8.23;3.77;;;;;;;-2.78;58.12;99457.31;5075475;28;20048;-68
2023/02/28 04:49:25;;;;;;;5.77;4.00;;;;;;;-2.73;57.20;99463.09;5041758;28;20039;-64
2023/02/28 04:51:52;;;;;;;6.30;4.00;;;;;;;-2.73;57.42;99455.28;5074411;28;20405;-66
2023/02/28 04:54:18;;;;;;;7.03;3.90;;;;;;;-2.69;56.77;99454.22;5072975;28;20472;-65
2023/02/28 04:56:44;;;;;;;7.27;4.13;;;;;;;-2.56;56.11;99452.66;5051619;28;20123;-65
2023/02/28 04:59:10;;;;;;;9.67;5.60;;;;;;;-3.21;56.73;99448.25;5040583;28;20076;-65
2023/02/28 05:01:36;;;;;;;5.70;4.13;;;;;;;-3.07;57.56;99429.38;5054741;28;20039;-63
2023/02/28 05:04:03;;;;;;;6.47;3.77;;;;;;;-2.54;57.51;99435.22;5046310;28;20096;-60
2023/02/28 05:06:32;;;;;;;6.80;4.17;;;;;;;-2.78;56.98;99429.56;5071333;28;20066;-64
2023/02/28 05:08:58;;;;;;;5.97;3.63;;;;;;;-2.51;56.55;99425.50;5097693;28;20536;-62
2023/02/28 05:11:34;;;;;;;6.27;3.87;;;;;;;-2.15;57.25;99407.03;5051042;28;20467;-62
2023/02/28 05:14:03;;;;;;;5.90;3.37;;;;;;;-2.18;55.68;99413.25;5079079;28;20048;-64
2023/02/28 05:16:29;;;;;;;5.93;3.77;;;;;;;-2.27;54.96;99405.13;5080518;28;20100;-61
2023/02/28 05:18:55;;;;;;;6.50;4.33;;;;;;;-2.31;54.87;99408.81;5063313;28;20656;-62
2023/02/28 05:21:27;;;;;;;6.37;4.07;;;;;;;-2.04;55.20;99409.88;5055126;28;20092;-61
2023/02/28 05:23:54;;;;;;;5.83;3.60;;;;;;;-2.34;55.19;99394.19;5045658;28;20079;-63
2023/02/28 05:26:20;;;;;;;6.23;3.73;;;;;;;-2.42;54.67;99383.41;5047280;28;20052;-62
2023/02/28 05:28:46;;;;;;;5.93;3.40;;;;;;;-2.07;53.71;99420.47;5028861;28;20098;-63
2023/02/28 05:31:12;;;;;;;5.50;3.40;;;;;;;-2.13;53.41;99415.59;5079790;28;20130;-61
2023/02/28 05:33:39;;;;;;;4.97;3.30;;;;;;;-2.16;53.57;99384.56;5058148;28;20123;-62
2023/02/28 05:36:05;;;;;;;6.20;4.13;;;;;;;-2.02;53.85;99388.09;5061975;28;20067;-63
2023/02/28 05:38:31;;;;;;;5.23;3.87;;;;;;;-1.84;52.81;99381.84;5038228;28;20495;-60
2023/02/28 05:40:57;;;;;;;8.33;4.07;;;;;;;-2.09;53.38;99359.91;5054153;28;20035;-61
2023/02/28 05:43:23;;;;;;;5.60;3.73;;;;;;;-2.16;52.59;99367.19;5022837;28;20040;-61
2023/02/28 05:45:49;;;;;;;5.93;3.90;;;;;;;-1.96;52.22;99374.72;5039743;28;20051;-65
2023/02/28 05:48:15;;;;;;;4.63;3.17;;;;;;;-1.63;51.54;99361.56;5040921;28;20395;-62
2023/02/28 05:50:42;;;;;;;6.73;3.90;;;;;;;-1.89;51.85;99356.97;5040676;28;20093;-62
2023/02/28 05:53:08;;;;;;;5.00;3.10;;;;;;;-1.62;50.86;99344.16;5040753;28;20430;-64
2023/02/28 05:55:35;;;;;;;4.93;3.27;;;;;;;-1.57;50.14;99382.03;5040484;28;20066;-62
2023/02/28 05:58:01;;;;;;;4.57;3.33;;;;;;;-1.71;50.17;99343.75;5024346;28;20036;-64
2023/02/28 06:00:27;;;;;;;5.87;3.57;;;;;;;-1.68;50.77;99323.69;5024573;28;20043;-65
2023/02/28 06:02:56;;;;;;;4.67;3.07;;;;;;;-1.38;49.86;99333.13;5024142;28;20047;-64
2023/02/28 06:05:22;;;;;;;6.17;3.43;;;;;;;-1.16;49.11;99315.28;5024606;28;20483;-64
2023/02/28 06:07:48;;;;;;;5.40;3.40;;;;;;;-1.26;48.83;99319.34;5056956;28;20146;-64
2023/02/28 06:10:15;;;;;;;5.47;3.70;;;;;;;-0.75;48.02;99324.00;5040784;28;20079;-65
2023/02/28 06:12:41;;;;;;;4.77;3.40;;;;;;;-0.71;47.36;99312.44;5039656;28;20043;-64
2023/02/28 06:15:16;;;;;;;4.07;2.70;;;;;;;-0.40;47.13;99304.34;5040826;28;20063;-65
2023/02/28 06:17:43;;;;;;;7.27;3.03;;;;;;;-0.37;46.91;99295.50;5056938;28;20044;-64
2023/02/28 06:20:12;;;;;;;4.37;2.93;;;;;;;-0.29;46.74;99301.06;5040658;28;20040;-65
2023/02/28 06:22:39;;;;;;;4.80;3.40;;;;;;;-0.65;46.86;99301.66;5056997;28;20044;-69
2023/02/28 06:25:06;;;;;;;5.20;2.87;;;;;;;-0.45;46.49;99293.41;5056910;28;20044;-66
2023/02/28 06:27:33;;;;;;;6.67;3.50;;;;;;;-0.10;45.68;99302.41;5040325;28;20138;-66
2023/02/28 06:29:59;;;;;;;4.80;3.27;;;;;;;-0.22;45.30;99284.09;5056944;28;20734;-66
2023/02/28 06:32:25;;;;;;;6.20;2.80;;;;;;;-0.48;45.21;99259.66;5056800;28;20048;-65
2023/02/28 06:34:51;;;;;;;3.33;2.60;;;;;;;-0.63;46.05;99258.03;5040257;28;20040;-66
2023/02/28 06:37:17;;;;;;;5.23;3.00;;;;;;;-0.07;44.96;99268.25;5023928;28;20537;-66
2023/02/28 06:39:44;;;;;;;3.80;2.63;;;;;;;-0.06;45.16;99251.66;5056523;28;20173;-65
2023/02/28 06:42:10;;;;;;;4.00;2.40;;;;;;;0.05;44.74;99243.09;5042930;28;20040;-65
2023/02/28 06:44:36;;;;;;;4.20;2.50;;;;;;;-0.19;44.19;99255.19;5060597;28;20040;-66
2023/02/28 06:47:05;;;;;;;2.63;2.10;;;;;;;-0.15;45.13;99218.34;5044207;28;20044;-68
2023/02/28 06:49:32;;;;;;;4.67;2.97;;;;;;;0.25;44.50;99240.00;5044453;28;20051;-66
2023/02/28 06:51:58;;;;;;;3.33;2.70;;;;;;;0.69;43.41;99235.16;5060896;28;20039;-65
2023/02/28 06:54:24;;;;;;;3.10;2.77;;;;;;;0.39;43.09;99202.50;5025958;28;20086;-63
2023/02/28 06:56:50;;;;;;;4.00;2.70;;;;;;;0.85;42.71;99209.66;5007671;28;20123;-60
2023/02/28 06:59:16;;;;;;;3.73;2.60;;;;;;;1.46;41.36;99225.25;5024002;28;20543;-65
2023/02/28 07:01:42;;;;;;;3.50;2.47;;;;;;;1.46;41.71;99203.50;5073401;28;20051;-62
2023/02/28 07:04:08;;;;;;;3.27;2.77;;;;;;;1.86;40.56;99191.72;5056961;28;20040;-66
2023/02/28 07:06:34;;;;;;;5.53;3.17;;;;;;;1.39;40.85;99194.41;5024076;28;20492;-65
2023/02/28 07:09:00;;;;;;;8.23;3.73;;;;;;;1.72;40.40;99207.66;5024431;28;20048;-65
2023/02/28 07:11:27;;;;;;;5.03;3.40;;;;;;;2.02;40.32;99126.78;5023016;28;20442;-65
2023/02/28 07:13:56;;;;;;;5.73;3.70;;;;;;;2.41;40.07;99191.00;5040023;28;20762;-65
2023/02/28 07:16:23;;;;;;;6.17;3.70;;;;;;;2.68;39.35;99184.47;5040484;28;20040;-65
2023/02/28 07:18:49;;;;;;;3.67;2.63;;;;;;;2.66;39.06;99154.09;5056859;28;20044;-65
2023/02/28 07:21:15;;;;;;;2.90;2.33;;;;;;;2.09;40.00;99159.41;5037393;28;20190;-67
2023/02/28 07:23:41;;;;;;;4.70;3.03;;;;;;;2.76;38.41;99150.63;5040892;28;20052;-65
2023/02/28 07:26:14;;;;;;;5.50;2.70;;;;;;;3.33;38.10;99143.34;5043418;28;20464;-65
2023/02/28 07:28:42;;;;;;;3.50;2.60;;;;;;;3.00;38.80;99151.28;5060332;28;20086;-65
2023/02/28 07:31:09;;;;;;;5.27;2.90;;;;;;;2.70;39.06;99143.25;5043496;28;20063;-65
2023/02/28 07:33:35;;;;;;;4.03;2.43;;;;;;;2.65;39.19;99149.78;5060034;28;20105;-66
2023/02/28 07:36:23;;;;;;;3.93;2.57;;;;;;;3.20;39.79;99123.44;5060262;28;20044;-65
2023/02/28 07:38:49;;;;;;;4.03;2.70;;;;;;;2.20;40.77;99114.91;5026737;28;20468;-64
2023/02/28 07:41:20;;;;;;;4.23;2.73;;;;;;;2.51;41.40;99123.81;5043387;28;20136;-66
2023/02/28 07:43:46;;;;;;;3.33;2.67;;;;;;;1.97;40.92;99096.69;5026490;28;20036;-65
2023/02/28 07:46:14;;;;;;;3.83;2.80;;;;;;;2.87;41.01;99102.56;5060066;28;20052;-65
2023/02/28 07:48:41;;;;;;;4.97;2.53;;;;;;;2.63;41.55;99104.53;5059593;28;20519;-66
2023/02/28 07:51:07;;;;;;;3.83;2.67;;;;;;;2.94;40.81;99119.47;5042781;28;20043;-67
2023/02/28 07:53:33;;;;;;;5.37;2.87;;;;;;;2.89;41.59;99091.00;5058767;28;20506;-63
2023/02/28 07:56:00;;;;;;;6.60;3.67;;;;;;;3.57;41.20;99084.53;5043173;28;20476;-62
2023/02/28 07:58:27;;;;;;;4.50;2.70;;;;;;;3.75;41.25;99080.38;5059528;28;20050;-65
2023/02/28 08:00:53;;;;;;;4.97;2.77;;;;;;;3.39;40.96;99068.50;5076095;28;20117;-62
2023/02/28 08:03:20;;;;;;;4.07;2.90;;;;;;;3.80;40.31;99065.06;5043130;28;20089;-62
2023/02/28 08:05:47;;;;;;;6.63;2.90;;;;;;;3.87;40.21;99076.69;5059142;28;20574;-62
2023/02/28 08:08:13;;;;;;;5.27;3.00;;;;;;;3.66;40.53;99053.06;5076419;28;20040;-62
2023/02/28 08:10:40;;;;;;;4.93;3.07;;;;;;;4.24;40.09;99097.09;5076133;28;20054;-64
2023/02/28 08:13:06;;;;;;;5.87;3.00;;;;;;;4.17;39.80;99068.81;5057023;28;20113;-64
2023/02/28 08:15:32;;;;;;;5.87;2.80;;;;;;;4.16;39.77;99083.78;5040796;28;20043;-62
2023/02/28 08:17:58;;;;;;;7.77;3.20;;;;;;;4.30;38.97;99077.31;5057037;28;20096;-63
2023/02/28 08:20:25;;;;;;;4.60;2.83;;;;;;;5.48;37.96;99049.94;5042024;28;20048;-63
2023/02/28 08:22:51;;;;;;;7.10;4.00;;;;;;;5.76;37.98;99062.25;5057522;28;20052;-60
2023/02/28 08:25:17;;;;;;;6.57;3.10;;;;;;;6.00;36.72;99049.44;5059057;28;20389;-63
2023/02/28 08:27:43;;;;;;;7.23;3.77;;;;;;;7.45;35.50;99037.88;5042495;28;20044;-63
2023/02/28 08:30:14;;;;;;;7.33;3.47;;;;;;;8.52;34.10;99044.34;5074947;28;20159;-64
2023/02/28 08:32:40;;;;;;;12.32;3.42;;;;;;;8.46;33.75;99037.03;5025251;28;20089;-62
2023/02/28 08:35:08;;;;;;;7.83;3.63;;;;;;;8.67;31.89;99007.53;5059286;28;20104;-62
2023/02/28 08:37:35;;;;;;;4.77;3.53;;;;;;;6.69;34.26;99015.53;5026027;28;20075;-64
2023/02/28 08:40:00;;;;;;;5.07;3.37;;;;;;;6.04;36.01;99021.00;5059116;28;20068;-63
2023/02/28 08:42:27;;;;;;;7.63;3.30;;;;;;;6.25;35.84;99009.25;5042351;28;20063;-62
2023/02/28 08:44:52;;;;;;;7.67;2.87;;;;;;;5.82;36.46;99006.38;5057133;28;20068;-62
2023/02/28 08:47:19;;;;;;;7.17;3.40;;;;;;;5.77;36.51;99002.47;5041813;28;20567;-65
2023/02/28 08:49:45;;;;;;;7.50;3.80;;;;;;;5.27;37.42;99007.16;5041782;28;20040;-60
2023/02/28 08:52:10;;;;;;;5.73;3.30;;;;;;;5.15;38.25;98976.69;5041736;28;20093;-61
2023/02/28 08:54:36;;;;;;;5.97;3.37;;;;;;;5.44;38.19;98966.09;5038450;28;20408;-64
2023/02/28 08:57:03;;;;;;;4.67;3.47;;;;;;;5.27;38.58;98945.78;5055311;28;20135;-63
2023/02/28 08:59:42;;;;;;;6.00;3.53;;;;;;;4.93;39.52;98963.81;5055157;28;20040;-63
2023/02/28 09:02:09;;;;;;;5.20;3.70;;;;;;;5.30;39.27;98964.75;5055534;28;20051;-64
2023/02/28 09:04:35;;;;;;;4.17;2.93;;;;;;;4.52;39.77;99006.97;5038518;28;20364;-64
2023/02/28 09:07:01;;;;;;;6.07;3.33;;;;;;;5.06;39.40;99003.81;5055023;28;20048;-62
2023/02/28 09:09:26;;;;;;;5.53;3.37;;;;;;;5.22;39.21;99004.94;5054998;28;20048;-64
2023/02/28 09:11:55;;;;;;;5.77;3.30;;;;;;;5.90;39.32;99014.41;5037283;28;20129;-64
2023/02/28 09:14:21;;;;;;;7.87;3.80;;;;;;;5.00;39.96;99007.00;5038235;28;20045;-63
2023/02/28 09:16:47;;;;;;;7.93;3.97;;;;;;;5.20;39.71;98996.34;5021315;28;20376;-65
2023/02/28 09:19:13;;;;;;;6.03;3.13;;;;;;;5.28;39.86;98992.16;5021722;28;20439;-63
2023/02/28 09:21:39;;;;;;;7.87;3.60;;;;;;;5.19;41.55;98978.91;5054937;28;20048;-64
2023/02/28 09:24:05;;;;;;;5.93;3.53;;;;;;;4.89;41.15;98978.19;5021067;28;20041;-63
2023/02/28 09:26:31;;;;;;;5.73;3.33;;;;;;;4.69;42.03;98979.19;5038272;28;20131;-63
2023/02/28 09:28:58;;;;;;;4.03;3.10;;;;;;;4.65;42.21;98948.84;5037847;28;20148;-63
2023/02/28 09:31:28;;;;;;;6.80;3.20;;;;;;;4.69;43.28;98939.75;5021965;28;20040;-62
2023/02/28 09:33:56;;;;;;;8.83;3.63;;;;;;;4.66;43.50;98929.47;5054646;28;20048;-62
2023/02/28 09:36:23;;;;;;;4.10;2.97;;;;;;;4.39;43.94;98937.19;5071282;28;20060;-63
2023/02/28 09:38:51;;;;;;;6.77;3.67;;;;;;;4.34;43.28;98915.75;5053896;28;20125;-63
2023/02/28 09:41:22;;;;;;;5.33;3.63;;;;;;;4.24;44.89;98893.88;5038142;28;20045;-65
2023/02/28 09:44:08;;;;;;;5.40;3.20;;;;;;;4.87;44.84;98925.72;5037683;28;20078;-63
2023/02/28 09:46:34;;;;;;;4.53;3.00;;;;;;;4.26;44.80;98924.31;5054766;28;20045;-63
2023/02/28 09:49:02;;;;;;;4.47;3.20;;;;;;;4.33;44.81;98930.72;5054254;28;20047;-63
2023/02/28 09:51:41;;;;;;;6.73;3.57;;;;;;;5.00;44.91;98922.81;5020799;28;20472;-64
2023/02/28 09:54:18;;;;;;;4.97;2.80;;;;;;;5.33;44.80;98938.13;5038569;28;20036;-65
2023/02/28 09:56:48;;;;;;;3.40;2.60;;;;;;;5.09;44.02;98948.28;5041150;28;20055;-62
2023/02/28 09:59:35;;;;;;;3.70;2.87;;;;;;;5.48;44.12;98936.72;5040860;28;20089;-63
2023/02/28 10:02:19;;;;;;;7.63;3.20;;;;;;;5.02;44.87;98929.59;5050134;28;20056;-64
2023/02/28 10:04:55;;;;;;;3.97;2.80;;;;;;;4.87;44.85;98927.53;5040916;28;20105;-64
2023/02/28 10:07:33;;;;;;;4.83;2.80;;;;;;;5.08;44.58;98915.88;5040670;28;20077;-62
2023/02/28 10:10:08;;;;;;;6.43;3.13;;;;;;;4.49;45.58;98888.09;5057152;28;20052;-64
2023/02/28 10:12:41;;;;;;;4.20;2.87;;;;;;;4.56;45.81;98903.19;5058430;28;20043;-65
2023/02/28 10:15:08;;;;;;;5.97;3.13;;;;;;;4.81;45.37;98888.66;5057178;28;20105;-64
2023/02/28 10:17:40;;;;;;;3.10;2.53;;;;;;;5.11;44.65;98899.81;5056766;28;20048;-63
2023/02/28 10:20:14;;;;;;;4.00;2.60;;;;;;;4.98;44.65;98891.38;5040629;28;20142;-64
2023/02/28 10:22:57;;;;;;;6.33;3.00;;;;;;;4.97;44.80;98897.63;5074267;28;20135;-64
2023/02/28 10:25:28;;;;;;;3.30;2.60;;;;;;;5.19;44.24;98893.84;5056939;28;20055;-64
2023/02/28 10:28:15;;;;;;;3.80;2.43;;;;;;;5.28;44.35;98864.00;5074033;28;20066;-64
2023/02/28 10:30:44;;;;;;;5.97;3.50;;;;;;;4.63;45.13;98859.56;5073684;28;20048;-65
2023/02/28 10:33:23;;;;;;;5.30;2.90;;;;;;;5.09;44.96;98880.69;5057317;28;20059;-65
2023/02/28 10:35:50;;;;;;;2.97;2.50;;;;;;;4.99;44.65;98850.13;5056705;28;20388;-65
2023/02/28 10:38:20;;;;;;;5.07;2.80;;;;;;;5.10;44.32;98853.38;5040489;28;20047;-65
2023/02/28 10:40:46;;;;;;;6.03;3.43;;;;;;;4.80;43.96;98866.75;5072588;28;20044;-63
2023/02/28 10:43:15;;;;;;;5.00;2.90;;;;;;;5.21;44.84;98853.22;5023919;28;20396;-64
2023/02/28 10:46:02;;;;;;;4.43;2.97;;;;;;;5.16;44.69;98855.47;5051335;28;20054;-66
2023/02/28 10:48:42;;;;;;;10.03;3.00;;;;;;;5.06;44.64;98838.88;5072006;28;20554;-65
2023/02/28 10:51:11;;;;;;;4.40;2.78;;;;;;;4.58;45.00;98842.56;5033025;28;20098;-66
2023/02/28 10:53:43;;;;;;;7.67;2.73;;;;;;;4.43;45.76;98802.72;5020026;28;20040;-65
2023/02/28 10:56:09;;;;;;;4.27;2.50;;;;;;;4.16;46.63;98833.28;5036713;28;20061;-66
2023/02/28 10:58:56;;;;;;;5.50;3.03;;;;;;;4.74;46.10;98848.06;5020225;28;20139;-66
2023/02/28 11:01:41;;;;;;;4.30;2.43;;;;;;;4.49;46.37;98801.34;5036627;28;20041;-65
2023/02/28 11:04:35;;;;;;;6.93;2.73;;;;;;;4.92;45.93;98825.34;5053770;28;20056;-66
2023/02/28 11:07:18;;;;;;;5.23;2.83;;;;;;;4.79;45.82;98836.19;5052961;28;20059;-66
2023/02/28 11:09:52;;;;;;;3.73;2.60;;;;;;;4.72;46.08;98816.66;5051941;28;20110;-65
2023/02/28 11:12:38;;;;;;;3.87;2.20;;;;;;;4.79;46.15;98825.66;5035579;28;20051;-65
2023/02/28 11:15:14;;;;;;;6.30;2.73;;;;;;;4.73;45.89;98820.13;5052488;28;20442;-66
2023/02/28 11:17:42;;;;;;;3.93;2.63;;;;;;;4.66;45.66;98808.50;5019024;28;20048;-66
2023/02/28 11:20:18;;;;;;;6.97;2.90;;;;;;;4.90;46.21;98809.72;5053673;28;20060;-64
2023/02/28 11:22:46;;;;;;;4.50;3.07;;;;;;;4.88;45.16;98805.53;5052597;28;20044;-65
2023/02/28 11:25:29;;;;;;;6.37;3.67;;;;;;;4.47;46.10;98788.34;5019810;28;20040;-66
2023/02/28 11:28:00;;;;;;;7.40;3.63;;;;;;;4.57;47.09;98794.41;5037682;28;20040;-64
2023/02/28 11:30:27;;;;;;;6.07;3.23;;;;;;;4.44;46.23;98793.03;5057012;28;20044;-66
2023/02/28 11:32:54;;;;;;;4.03;3.00;;;;;;;4.59;46.28;98771.44;5056718;28;20043;-67
2023/02/28 11:35:36;;;;;;;4.53;3.20;;;;;;;4.45;47.90;98794.69;5023189;28;20075;-66
2023/02/28 11:38:02;;;;;;;9.50;3.47;;;;;;;4.08;48.13;98780.59;5022929;28;20072;-66
2023/02/28 11:40:36;;;;;;;4.80;2.83;;;;;;;4.15;47.39;98781.72;5039885;28;20116;-65
2023/02/28 11:43:34;;;;;;;6.47;3.20;;;;;;;5.10;47.21;98792.06;5023002;28;20049;-64
2023/02/28 11:46:30;;;;;;;7.00;3.60;;;;;;;5.00;47.87;98778.09;5023526;28;20040;-67
2023/02/28 11:48:59;;;;;;;4.63;2.90;;;;;;;4.13;47.33;98781.03;5058969;28;20043;-65
2023/02/28 11:51:39;;;;;;;3.93;3.00;;;;;;;4.67;48.83;98799.66;5067768;28;20044;-63